sensor_id;sensor_type;location;lat;lon;timestamp;temperature;humidity
21425;DHT22;10873;51.132;16.848;2023-02-13T00:00:43;24.10;49.70
21425;DHT22;10873;51.132;16.848;2023-02-13T00:03:21;24.10;49.50
21425;DHT22;10873;51.132;16.848;2023-02-13T00:05:47;24.10;50.20
21425;DHT22;10873;51.132;16.848;2023-02-13T00:08:13;24.10;49.40
21425;DHT22;10873;51.132;16.848;2023-02-13T00:10:39;24.10;49.40
21425;DHT22;10873;51.132;16.848;2023-02-13T00:13:06;24.10;49.40
21425;DHT22;10873;51.132;16.848;2023-02-13T00:15:33;24.10;49.40
21425;DHT22;10873;51.132;16.848;2023-02-13T00:17:58;24.10;49.40
21425;DHT22;10873;51.132;16.848;2023-02-13T00:20:25;24.10;49.50
21425;DHT22;10873;51.132;16.848;2023-02-13T00:22:51;24.10;49.50
21425;DHT22;10873;51.132;16.848;2023-02-13T00:25:17;24.10;49.50
21425;DHT22;10873;51.132;16.848;2023-02-13T00:27:43;24.10;50.20
21425;DHT22;10873;51.132;16.848;2023-02-13T00:30:12;24.00;49.30
21425;DHT22;10873;51.132;16.848;2023-02-13T00:32:38;24.10;49.30
21425;DHT22;10873;51.132;16.848;2023-02-13T00:35:04;24.00;49.20
21425;DHT22;10873;51.132;16.848;2023-02-13T00:37:32;24.10;49.30
21425;DHT22;10873;51.132;16.848;2023-02-13T00:39:58;24.10;49.30
21425;DHT22;10873;51.132;16.848;2023-02-13T00:42:24;24.00;49.30
21425;DHT22;10873;51.132;16.848;2023-02-13T00:44:51;24.10;49.40
21425;DHT22;10873;51.132;16.848;2023-02-13T00:47:19;24.10;49.40
21425;DHT22;10873;51.132;16.848;2023-02-13T00:49:45;24.00;49.30
21425;DHT22;10873;51.132;16.848;2023-02-13T00:52:11;24.10;50.10
21425;DHT22;10873;51.132;16.848;2023-02-13T00:54:37;24.00;49.30
21425;DHT22;10873;51.132;16.848;2023-02-13T00:57:03;24.00;49.30
21425;DHT22;10873;51.132;16.848;2023-02-13T00:59:29;24.10;49.30
21425;DHT22;10873;51.132;16.848;2023-02-13T01:01:55;24.10;49.30
21425;DHT22;10873;51.132;16.848;2023-02-13T01:04:22;24.10;49.30
21425;DHT22;10873;51.132;16.848;2023-02-13T01:06:48;24.10;49.20
21425;DHT22;10873;51.132;16.848;2023-02-13T01:09:14;24.10;49.30
21425;DHT22;10873;51.132;16.848;2023-02-13T01:11:40;24.10;49.30
21425;DHT22;10873;51.132;16.848;2023-02-13T01:14:06;24.00;49.30
21425;DHT22;10873;51.132;16.848;2023-02-13T01:16:32;24.00;49.30
21425;DHT22;10873;51.132;16.848;2023-02-13T01:18:58;24.00;49.30
21425;DHT22;10873;51.132;16.848;2023-02-13T01:21:26;24.10;49.30
21425;DHT22;10873;51.132;16.848;2023-02-13T01:23:52;24.10;49.20
21425;DHT22;10873;51.132;16.848;2023-02-13T01:26:19;24.00;49.20
21425;DHT22;10873;51.132;16.848;2023-02-13T01:28:46;24.10;49.20
21425;DHT22;10873;51.132;16.848;2023-02-13T01:31:12;24.10;49.20
21425;DHT22;10873;51.132;16.848;2023-02-13T01:33:38;24.10;49.20
21425;DHT22;10873;51.132;16.848;2023-02-13T01:36:06;24.10;49.20
21425;DHT22;10873;51.132;16.848;2023-02-13T01:38:34;24.10;49.20
21425;DHT22;10873;51.132;16.848;2023-02-13T01:41:00;24.10;49.20
21425;DHT22;10873;51.132;16.848;2023-02-13T01:43:42;24.10;49.20
21425;DHT22;10873;51.132;16.848;2023-02-13T01:46:08;24.00;49.20
21425;DHT22;10873;51.132;16.848;2023-02-13T01:48:36;24.10;49.20
21425;DHT22;10873;51.132;16.848;2023-02-13T01:51:05;24.10;49.20
21425;DHT22;10873;51.132;16.848;2023-02-13T01:53:37;24.10;49.10
21425;DHT22;10873;51.132;16.848;2023-02-13T01:56:08;24.10;49.10
21425;DHT22;10873;51.132;16.848;2023-02-13T01:58:38;24.10;49.10
21425;DHT22;10873;51.132;16.848;2023-02-13T02:01:05;24.10;49.10
21425;DHT22;10873;51.132;16.848;2023-02-13T02:03:36;24.10;49.10
21425;DHT22;10873;51.132;16.848;2023-02-13T02:06:04;24.10;49.10
21425;DHT22;10873;51.132;16.848;2023-02-13T02:08:32;24.00;49.10
21425;DHT22;10873;51.132;16.848;2023-02-13T02:11:14;24.00;49.10
21425;DHT22;10873;51.132;16.848;2023-02-13T02:13:43;24.10;49.20
21425;DHT22;10873;51.132;16.848;2023-02-13T02:20:00;24.10;49.20
21425;DHT22;10873;51.132;16.848;2023-02-13T02:25:54;24.10;49.20
21425;DHT22;10873;51.132;16.848;2023-02-13T02:28:44;24.10;49.10
21425;DHT22;10873;51.132;16.848;2023-02-13T02:31:48;24.10;49.10
21425;DHT22;10873;51.132;16.848;2023-02-13T02:34:23;24.10;49.10
21425;DHT22;10873;51.132;16.848;2023-02-13T02:37:04;24.10;49.10
21425;DHT22;10873;51.132;16.848;2023-02-13T02:39:43;24.10;49.20
21425;DHT22;10873;51.132;16.848;2023-02-13T02:42:19;24.10;49.20
21425;DHT22;10873;51.132;16.848;2023-02-13T02:45:00;24.10;49.20
21425;DHT22;10873;51.132;16.848;2023-02-13T02:47:32;24.10;49.20
21425;DHT22;10873;51.132;16.848;2023-02-13T02:50:32;24.20;49.20
21425;DHT22;10873;51.132;16.848;2023-02-13T02:53:07;24.20;49.20
21425;DHT22;10873;51.132;16.848;2023-02-13T02:55:39;24.10;49.20
21425;DHT22;10873;51.132;16.848;2023-02-13T02:58:12;24.20;49.20
21425;DHT22;10873;51.132;16.848;2023-02-13T03:00:59;24.20;49.80
21425;DHT22;10873;51.132;16.848;2023-02-13T03:03:46;24.20;49.20
21425;DHT22;10873;51.132;16.848;2023-02-13T03:06:35;24.10;49.10
21425;DHT22;10873;51.132;16.848;2023-02-13T03:09:05;24.10;49.20
21425;DHT22;10873;51.132;16.848;2023-02-13T03:11:54;24.20;49.20
21425;DHT22;10873;51.132;16.848;2023-02-13T03:14:40;24.10;49.20
21425;DHT22;10873;51.132;16.848;2023-02-13T03:17:10;24.10;49.20
21425;DHT22;10873;51.132;16.848;2023-02-13T03:20:11;24.20;49.30
21425;DHT22;10873;51.132;16.848;2023-02-13T03:23:10;24.20;49.20
21425;DHT22;10873;51.132;16.848;2023-02-13T03:25:57;24.20;49.20
21425;DHT22;10873;51.132;16.848;2023-02-13T03:28:33;24.20;49.20
21425;DHT22;10873;51.132;16.848;2023-02-13T03:31:25;24.20;49.20
21425;DHT22;10873;51.132;16.848;2023-02-13T03:33:58;24.20;49.20
21425;DHT22;10873;51.132;16.848;2023-02-13T03:36:33;24.20;49.10
21425;DHT22;10873;51.132;16.848;2023-02-13T03:39:23;24.20;49.10
21425;DHT22;10873;51.132;16.848;2023-02-13T03:41:57;24.20;49.10
21425;DHT22;10873;51.132;16.848;2023-02-13T03:44:29;24.20;49.10
21425;DHT22;10873;51.132;16.848;2023-02-13T03:46:57;24.20;49.10
21425;DHT22;10873;51.132;16.848;2023-02-13T03:49:28;24.20;49.10
21425;DHT22;10873;51.132;16.848;2023-02-13T03:52:20;24.20;49.20
21425;DHT22;10873;51.132;16.848;2023-02-13T03:54:50;24.20;49.20
21425;DHT22;10873;51.132;16.848;2023-02-13T03:57:38;24.20;49.20
21425;DHT22;10873;51.132;16.848;2023-02-13T04:00:24;24.20;49.20
21425;DHT22;10873;51.132;16.848;2023-02-13T04:02:55;24.20;49.20
21425;DHT22;10873;51.132;16.848;2023-02-13T04:05:25;24.20;49.20
21425;DHT22;10873;51.132;16.848;2023-02-13T04:07:53;24.20;49.20
21425;DHT22;10873;51.132;16.848;2023-02-13T04:10:21;24.30;49.20
21425;DHT22;10873;51.132;16.848;2023-02-13T04:12:55;24.20;49.20
21425;DHT22;10873;51.132;16.848;2023-02-13T04:15:28;24.20;49.20
21425;DHT22;10873;51.132;16.848;2023-02-13T04:18:01;24.20;49.20
21425;DHT22;10873;51.132;16.848;2023-02-13T04:20:30;24.30;49.30
21425;DHT22;10873;51.132;16.848;2023-02-13T04:23:04;24.20;49.20
21425;DHT22;10873;51.132;16.848;2023-02-13T04:25:31;24.20;49.30
21425;DHT22;10873;51.132;16.848;2023-02-13T04:27:57;24.20;49.30
21425;DHT22;10873;51.132;16.848;2023-02-13T04:30:23;24.20;49.30
21425;DHT22;10873;51.132;16.848;2023-02-13T04:32:49;24.30;49.40
21425;DHT22;10873;51.132;16.848;2023-02-13T04:35:16;24.30;49.50
21425;DHT22;10873;51.132;16.848;2023-02-13T04:37:42;24.20;49.40
21425;DHT22;10873;51.132;16.848;2023-02-13T04:40:11;24.30;49.50
21425;DHT22;10873;51.132;16.848;2023-02-13T04:42:37;24.30;49.50
21425;DHT22;10873;51.132;16.848;2023-02-13T04:45:04;24.30;49.60
21425;DHT22;10873;51.132;16.848;2023-02-13T04:47:30;24.30;49.60
21425;DHT22;10873;51.132;16.848;2023-02-13T04:49:56;24.30;49.60
21425;DHT22;10873;51.132;16.848;2023-02-13T04:52:22;24.30;49.70
21425;DHT22;10873;51.132;16.848;2023-02-13T04:54:49;24.30;49.60
21425;DHT22;10873;51.132;16.848;2023-02-13T04:57:16;24.30;49.60
21425;DHT22;10873;51.132;16.848;2023-02-13T04:59:42;24.30;49.70
21425;DHT22;10873;51.132;16.848;2023-02-13T05:02:08;24.30;49.70
21425;DHT22;10873;51.132;16.848;2023-02-13T05:04:34;24.30;49.70
21425;DHT22;10873;51.132;16.848;2023-02-13T05:07:00;24.30;49.70
21425;DHT22;10873;51.132;16.848;2023-02-13T05:09:26;24.30;49.70
21425;DHT22;10873;51.132;16.848;2023-02-13T05:11:52;24.30;49.70
21425;DHT22;10873;51.132;16.848;2023-02-13T05:14:20;24.30;49.70
21425;DHT22;10873;51.132;16.848;2023-02-13T05:16:46;24.30;49.80
21425;DHT22;10873;51.132;16.848;2023-02-13T05:19:14;24.20;49.80
21425;DHT22;10873;51.132;16.848;2023-02-13T05:21:40;24.20;49.80
21425;DHT22;10873;51.132;16.848;2023-02-13T05:24:25;24.20;49.80
21425;DHT22;10873;51.132;16.848;2023-02-13T05:26:51;24.20;49.80
21425;DHT22;10873;51.132;16.848;2023-02-13T05:29:17;24.20;49.80
21425;DHT22;10873;51.132;16.848;2023-02-13T05:31:50;24.20;49.80
21425;DHT22;10873;51.132;16.848;2023-02-13T05:34:17;24.20;49.80
21425;DHT22;10873;51.132;16.848;2023-02-13T05:36:43;24.20;49.90
21425;DHT22;10873;51.132;16.848;2023-02-13T05:39:09;24.30;50.00
21425;DHT22;10873;51.132;16.848;2023-02-13T05:41:35;24.30;49.90
21425;DHT22;10873;51.132;16.848;2023-02-13T05:44:01;24.30;50.00
21425;DHT22;10873;51.132;16.848;2023-02-13T05:46:27;24.30;49.90
21425;DHT22;10873;51.132;16.848;2023-02-13T05:48:55;24.20;49.90
21425;DHT22;10873;51.132;16.848;2023-02-13T05:51:21;24.30;50.00
21425;DHT22;10873;51.132;16.848;2023-02-13T05:53:47;24.20;49.90
21425;DHT22;10873;51.132;16.848;2023-02-13T05:59:25;24.20;50.00
21425;DHT22;10873;51.132;16.848;2023-02-13T06:04:25;24.20;50.00
21425;DHT22;10873;51.132;16.848;2023-02-13T06:06:51;24.20;50.00
21425;DHT22;10873;51.132;16.848;2023-02-13T06:09:17;24.30;50.00
21425;DHT22;10873;51.132;16.848;2023-02-13T06:11:43;24.20;49.90
21425;DHT22;10873;51.132;16.848;2023-02-13T06:14:10;24.20;49.90
21425;DHT22;10873;51.132;16.848;2023-02-13T06:16:36;24.20;49.90
21425;DHT22;10873;51.132;16.848;2023-02-13T06:19:02;24.20;49.90
21425;DHT22;10873;51.132;16.848;2023-02-13T06:21:29;24.20;49.90
21425;DHT22;10873;51.132;16.848;2023-02-13T06:23:55;24.20;49.90
21425;DHT22;10873;51.132;16.848;2023-02-13T06:26:22;24.20;49.90
21425;DHT22;10873;51.132;16.848;2023-02-13T06:28:48;24.20;49.90
21425;DHT22;10873;51.132;16.848;2023-02-13T06:31:15;24.20;50.00
21425;DHT22;10873;51.132;16.848;2023-02-13T06:33:41;24.20;50.80
21425;DHT22;10873;51.132;16.848;2023-02-13T06:36:07;24.20;51.50
21425;DHT22;10873;51.132;16.848;2023-02-13T06:38:34;24.20;51.80
21425;DHT22;10873;51.132;16.848;2023-02-13T06:41:01;24.20;52.50
21425;DHT22;10873;51.132;16.848;2023-02-13T06:43:27;24.20;51.70
21425;DHT22;10873;51.132;16.848;2023-02-13T06:45:53;24.20;51.70
21425;DHT22;10873;51.132;16.848;2023-02-13T06:48:19;24.20;51.70
21425;DHT22;10873;51.132;16.848;2023-02-13T06:50:45;24.20;51.60
21425;DHT22;10873;51.132;16.848;2023-02-13T06:53:11;24.20;51.60
21425;DHT22;10873;51.132;16.848;2023-02-13T06:55:39;24.20;51.50
21425;DHT22;10873;51.132;16.848;2023-02-13T06:58:05;24.20;51.50
21425;DHT22;10873;51.132;16.848;2023-02-13T07:00:31;24.20;51.60
21425;DHT22;10873;51.132;16.848;2023-02-13T07:03:01;24.20;51.50
21425;DHT22;10873;51.132;16.848;2023-02-13T07:05:27;24.20;51.50
21425;DHT22;10873;51.132;16.848;2023-02-13T07:07:53;24.20;51.50
21425;DHT22;10873;51.132;16.848;2023-02-13T07:10:19;24.20;51.50
21425;DHT22;10873;51.132;16.848;2023-02-13T07:12:46;24.20;51.50
21425;DHT22;10873;51.132;16.848;2023-02-13T07:15:13;24.20;51.50
21425;DHT22;10873;51.132;16.848;2023-02-13T07:17:39;24.20;51.50
21425;DHT22;10873;51.132;16.848;2023-02-13T07:20:06;24.20;51.60
21425;DHT22;10873;51.132;16.848;2023-02-13T07:22:33;24.20;51.60
21425;DHT22;10873;51.132;16.848;2023-02-13T07:25:00;24.20;51.70
21425;DHT22;10873;51.132;16.848;2023-02-13T07:27:26;24.20;51.60
21425;DHT22;10873;51.132;16.848;2023-02-13T07:29:56;24.20;51.70
21425;DHT22;10873;51.132;16.848;2023-02-13T07:32:22;24.20;51.60
21425;DHT22;10873;51.132;16.848;2023-02-13T07:34:48;24.20;51.70
21425;DHT22;10873;51.132;16.848;2023-02-13T07:37:14;24.20;51.70
21425;DHT22;10873;51.132;16.848;2023-02-13T07:39:40;24.20;51.70
21425;DHT22;10873;51.132;16.848;2023-02-13T07:42:06;24.20;51.70
21425;DHT22;10873;51.132;16.848;2023-02-13T07:44:32;24.20;51.70
21425;DHT22;10873;51.132;16.848;2023-02-13T07:46:59;24.20;51.70
21425;DHT22;10873;51.132;16.848;2023-02-13T07:49:26;24.20;51.70
21425;DHT22;10873;51.132;16.848;2023-02-13T07:51:51;24.20;51.70
21425;DHT22;10873;51.132;16.848;2023-02-13T07:54:18;24.20;51.70
21425;DHT22;10873;51.132;16.848;2023-02-13T07:56:43;24.20;51.80
21425;DHT22;10873;51.132;16.848;2023-02-13T07:59:09;24.20;51.70
21425;DHT22;10873;51.132;16.848;2023-02-13T08:01:35;24.20;51.70
21425;DHT22;10873;51.132;16.848;2023-02-13T08:04:03;24.20;51.80
21425;DHT22;10873;51.132;16.848;2023-02-13T08:06:29;24.20;51.70
21425;DHT22;10873;51.132;16.848;2023-02-13T08:08:55;24.20;51.80
21425;DHT22;10873;51.132;16.848;2023-02-13T08:11:40;24.20;51.80
21425;DHT22;10873;51.132;16.848;2023-02-13T08:14:19;24.20;51.70
21425;DHT22;10873;51.132;16.848;2023-02-13T08:16:45;24.20;51.70
21425;DHT22;10873;51.132;16.848;2023-02-13T08:19:13;24.20;51.70
21425;DHT22;10873;51.132;16.848;2023-02-13T08:21:38;24.20;51.80
21425;DHT22;10873;51.132;16.848;2023-02-13T08:24:05;24.20;51.80
21425;DHT22;10873;51.132;16.848;2023-02-13T08:26:31;24.20;51.80
21425;DHT22;10873;51.132;16.848;2023-02-13T08:28:58;24.20;51.70
21425;DHT22;10873;51.132;16.848;2023-02-13T08:31:24;24.20;51.70
21425;DHT22;10873;51.132;16.848;2023-02-13T08:33:50;24.30;51.70
21425;DHT22;10873;51.132;16.848;2023-02-13T08:36:17;24.30;51.60
21425;DHT22;10873;51.132;16.848;2023-02-13T08:38:46;24.30;51.60
21425;DHT22;10873;51.132;16.848;2023-02-13T08:41:12;24.30;51.60
21425;DHT22;10873;51.132;16.848;2023-02-13T08:43:39;24.30;51.60
21425;DHT22;10873;51.132;16.848;2023-02-13T08:46:05;24.30;51.60
21425;DHT22;10873;51.132;16.848;2023-02-13T08:48:31;24.30;51.50
21425;DHT22;10873;51.132;16.848;2023-02-13T08:50:57;24.30;51.60
21425;DHT22;10873;51.132;16.848;2023-02-13T08:53:25;24.30;51.60
21425;DHT22;10873;51.132;16.848;2023-02-13T08:55:51;24.30;51.60
21425;DHT22;10873;51.132;16.848;2023-02-13T08:58:18;24.30;51.60
21425;DHT22;10873;51.132;16.848;2023-02-13T09:00:43;24.30;51.50
21425;DHT22;10873;51.132;16.848;2023-02-13T09:03:10;24.30;51.60
21425;DHT22;10873;51.132;16.848;2023-02-13T09:05:36;24.30;51.60
21425;DHT22;10873;51.132;16.848;2023-02-13T09:08:03;24.30;51.60
21425;DHT22;10873;51.132;16.848;2023-02-13T09:10:31;24.30;51.60
21425;DHT22;10873;51.132;16.848;2023-02-13T09:12:57;24.30;51.60
21425;DHT22;10873;51.132;16.848;2023-02-13T09:15:23;24.30;51.60
21425;DHT22;10873;51.132;16.848;2023-02-13T09:17:49;24.30;51.50
21425;DHT22;10873;51.132;16.848;2023-02-13T09:20:15;24.30;51.40
21425;DHT22;10873;51.132;16.848;2023-02-13T09:22:41;24.30;51.40
21425;DHT22;10873;51.132;16.848;2023-02-13T09:25:08;24.30;52.00
21425;DHT22;10873;51.132;16.848;2023-02-13T09:27:36;24.30;51.40
21425;DHT22;10873;51.132;16.848;2023-02-13T09:30:04;24.30;51.30
21425;DHT22;10873;51.132;16.848;2023-02-13T09:32:30;24.30;51.30
21425;DHT22;10873;51.132;16.848;2023-02-13T09:34:56;24.30;51.30
21425;DHT22;10873;51.132;16.848;2023-02-13T09:37:22;24.30;51.20
21425;DHT22;10873;51.132;16.848;2023-02-13T09:39:48;24.30;51.20
21425;DHT22;10873;51.132;16.848;2023-02-13T09:42:18;24.30;51.10
21425;DHT22;10873;51.132;16.848;2023-02-13T09:44:48;24.20;51.10
21425;DHT22;10873;51.132;16.848;2023-02-13T09:47:19;24.30;51.10
21425;DHT22;10873;51.132;16.848;2023-02-13T09:49:50;24.20;51.00
21425;DHT22;10873;51.132;16.848;2023-02-13T09:52:17;24.20;51.00
21425;DHT22;10873;51.132;16.848;2023-02-13T09:54:43;24.20;51.00
21425;DHT22;10873;51.132;16.848;2023-02-13T09:57:16;24.20;51.10
21425;DHT22;10873;51.132;16.848;2023-02-13T09:59:53;24.20;51.10
21425;DHT22;10873;51.132;16.848;2023-02-13T10:05:21;24.20;51.10
21425;DHT22;10873;51.132;16.848;2023-02-13T10:07:56;24.20;51.10
21425;DHT22;10873;51.132;16.848;2023-02-13T10:10:29;24.30;51.00
21425;DHT22;10873;51.132;16.848;2023-02-13T10:13:15;24.30;51.00
21425;DHT22;10873;51.132;16.848;2023-02-13T10:15:52;24.30;51.00
21425;DHT22;10873;51.132;16.848;2023-02-13T10:18:22;24.30;50.80
21425;DHT22;10873;51.132;16.848;2023-02-13T10:20:52;24.30;50.80
21425;DHT22;10873;51.132;16.848;2023-02-13T10:23:23;24.30;50.70
21425;DHT22;10873;51.132;16.848;2023-02-13T10:25:54;24.30;50.70
21425;DHT22;10873;51.132;16.848;2023-02-13T10:28:29;24.30;50.70
21425;DHT22;10873;51.132;16.848;2023-02-13T10:31:02;24.30;50.70
21425;DHT22;10873;51.132;16.848;2023-02-13T10:33:32;24.30;50.60
21425;DHT22;10873;51.132;16.848;2023-02-13T10:36:02;24.30;50.60
21425;DHT22;10873;51.132;16.848;2023-02-13T10:38:32;24.30;50.50
21425;DHT22;10873;51.132;16.848;2023-02-13T10:41:04;24.30;50.50
21425;DHT22;10873;51.132;16.848;2023-02-13T10:43:37;24.30;50.50
21425;DHT22;10873;51.132;16.848;2023-02-13T10:46:13;24.30;50.50
21425;DHT22;10873;51.132;16.848;2023-02-13T10:49:06;24.30;50.40
21425;DHT22;10873;51.132;16.848;2023-02-13T10:51:39;24.30;50.50
21425;DHT22;10873;51.132;16.848;2023-02-13T10:54:26;24.30;50.60
21425;DHT22;10873;51.132;16.848;2023-02-13T10:57:02;24.30;50.60
21425;DHT22;10873;51.132;16.848;2023-02-13T10:59:43;24.30;51.20
21425;DHT22;10873;51.132;16.848;2023-02-13T11:02:23;24.30;50.60
21425;DHT22;10873;51.132;16.848;2023-02-13T11:04:52;24.30;51.20
21425;DHT22;10873;51.132;16.848;2023-02-13T11:07:23;24.30;50.50
21425;DHT22;10873;51.132;16.848;2023-02-13T11:09:53;24.30;50.40
21425;DHT22;10873;51.132;16.848;2023-02-13T11:12:25;24.30;50.40
21425;DHT22;10873;51.132;16.848;2023-02-13T11:14:56;24.40;50.40
21425;DHT22;10873;51.132;16.848;2023-02-13T11:17:27;24.30;50.30
21425;DHT22;10873;51.132;16.848;2023-02-13T11:19:56;24.30;50.20
21425;DHT22;10873;51.132;16.848;2023-02-13T11:22:29;24.40;50.30
21425;DHT22;10873;51.132;16.848;2023-02-13T11:24:59;24.40;50.20
21425;DHT22;10873;51.132;16.848;2023-02-13T11:27:31;24.40;50.20
21425;DHT22;10873;51.132;16.848;2023-02-13T11:29:59;24.40;50.20
21425;DHT22;10873;51.132;16.848;2023-02-13T11:32:29;24.30;50.20
21425;DHT22;10873;51.132;16.848;2023-02-13T11:34:56;24.30;50.20
21425;DHT22;10873;51.132;16.848;2023-02-13T11:37:26;24.30;50.20
21425;DHT22;10873;51.132;16.848;2023-02-13T11:39:53;24.30;50.30
21425;DHT22;10873;51.132;16.848;2023-02-13T11:42:26;24.30;50.30
21425;DHT22;10873;51.132;16.848;2023-02-13T11:44:54;24.30;50.30
21425;DHT22;10873;51.132;16.848;2023-02-13T11:47:35;24.30;50.60
21425;DHT22;10873;51.132;16.848;2023-02-13T11:50:03;24.30;50.70
21425;DHT22;10873;51.132;16.848;2023-02-13T11:52:32;24.30;50.60
21425;DHT22;10873;51.132;16.848;2023-02-13T11:55:01;24.30;50.50
21425;DHT22;10873;51.132;16.848;2023-02-13T11:57:30;24.30;50.40
21425;DHT22;10873;51.132;16.848;2023-02-13T11:59:57;24.30;50.40
21425;DHT22;10873;51.132;16.848;2023-02-13T12:02:24;24.40;50.40
21425;DHT22;10873;51.132;16.848;2023-02-13T12:04:54;24.30;50.30
21425;DHT22;10873;51.132;16.848;2023-02-13T12:07:22;24.30;50.20
21425;DHT22;10873;51.132;16.848;2023-02-13T12:09:53;24.30;50.20
21425;DHT22;10873;51.132;16.848;2023-02-13T12:12:24;24.30;50.20
21425;DHT22;10873;51.132;16.848;2023-02-13T12:14:52;24.30;50.20
21425;DHT22;10873;51.132;16.848;2023-02-13T12:17:20;24.30;50.20
21425;DHT22;10873;51.132;16.848;2023-02-13T12:19:48;24.30;50.20
21425;DHT22;10873;51.132;16.848;2023-02-13T12:25:31;24.30;50.90
21425;DHT22;10873;51.132;16.848;2023-02-13T12:28:12;24.30;50.20
21425;DHT22;10873;51.132;16.848;2023-02-13T12:34:10;24.30;50.20
21425;DHT22;10873;51.132;16.848;2023-02-13T12:36:48;24.30;50.20
21425;DHT22;10873;51.132;16.848;2023-02-13T12:39:25;24.30;50.10
21425;DHT22;10873;51.132;16.848;2023-02-13T12:42:09;24.30;50.20
21425;DHT22;10873;51.132;16.848;2023-02-13T12:44:59;24.20;50.20
21425;DHT22;10873;51.132;16.848;2023-02-13T12:47:29;24.20;50.20
21425;DHT22;10873;51.132;16.848;2023-02-13T12:50:14;24.30;50.20
21425;DHT22;10873;51.132;16.848;2023-02-13T12:52:59;24.20;50.90
21425;DHT22;10873;51.132;16.848;2023-02-13T12:56:02;24.30;50.20
21425;DHT22;10873;51.132;16.848;2023-02-13T12:58:44;24.30;50.10
21425;DHT22;10873;51.132;16.848;2023-02-13T13:01:19;24.30;50.00
21425;DHT22;10873;51.132;16.848;2023-02-13T13:03:57;24.30;49.90
21425;DHT22;10873;51.132;16.848;2023-02-13T13:06:43;24.30;49.80
21425;DHT22;10873;51.132;16.848;2023-02-13T13:09:34;24.30;49.70
21425;DHT22;10873;51.132;16.848;2023-02-13T13:12:29;24.30;49.60
21425;DHT22;10873;51.132;16.848;2023-02-13T13:15:04;24.30;49.50
21425;DHT22;10873;51.132;16.848;2023-02-13T13:17:41;24.30;49.40
21425;DHT22;10873;51.132;16.848;2023-02-13T13:20:47;24.30;49.40
21425;DHT22;10873;51.132;16.848;2023-02-13T13:23:20;24.30;49.30
21425;DHT22;10873;51.132;16.848;2023-02-13T13:25:53;24.30;49.30
21425;DHT22;10873;51.132;16.848;2023-02-13T13:28:25;24.30;49.30
21425;DHT22;10873;51.132;16.848;2023-02-13T13:30:55;24.30;49.20
21425;DHT22;10873;51.132;16.848;2023-02-13T13:33:23;24.30;49.20
21425;DHT22;10873;51.132;16.848;2023-02-13T13:35:56;24.30;49.20
21425;DHT22;10873;51.132;16.848;2023-02-13T13:38:33;24.30;49.20
21425;DHT22;10873;51.132;16.848;2023-02-13T13:41:07;24.30;49.10
21425;DHT22;10873;51.132;16.848;2023-02-13T13:43:47;24.30;49.10
21425;DHT22;10873;51.132;16.848;2023-02-13T13:46:21;24.20;49.20
21425;DHT22;10873;51.132;16.848;2023-02-13T13:48:59;24.30;49.20
21425;DHT22;10873;51.132;16.848;2023-02-13T13:51:31;24.20;49.20
21425;DHT22;10873;51.132;16.848;2023-02-13T13:54:23;24.20;49.20
21425;DHT22;10873;51.132;16.848;2023-02-13T13:57:09;24.20;49.20
21425;DHT22;10873;51.132;16.848;2023-02-13T14:03:24;24.20;49.20
21425;DHT22;10873;51.132;16.848;2023-02-13T14:06:02;24.30;49.20
21425;DHT22;10873;51.132;16.848;2023-02-13T14:09:04;24.20;50.40
21425;DHT22;10873;51.132;16.848;2023-02-13T14:11:36;24.20;51.20
21425;DHT22;10873;51.132;16.848;2023-02-13T14:17:14;24.20;50.50
21425;DHT22;10873;51.132;16.848;2023-02-13T14:19:46;24.20;50.50
21425;DHT22;10873;51.132;16.848;2023-02-13T14:22:32;24.20;50.50
21425;DHT22;10873;51.132;16.848;2023-02-13T14:25:00;24.10;50.20
21425;DHT22;10873;51.132;16.848;2023-02-13T14:27:29;24.10;50.10
21425;DHT22;10873;51.132;16.848;2023-02-13T14:29:56;24.10;49.90
21425;DHT22;10873;51.132;16.848;2023-02-13T14:32:27;24.10;49.90
21425;DHT22;10873;51.132;16.848;2023-02-13T14:34:59;24.10;49.70
21425;DHT22;10873;51.132;16.848;2023-02-13T14:37:32;24.10;49.70
21425;DHT22;10873;51.132;16.848;2023-02-13T14:43:39;24.10;49.60
21425;DHT22;10873;51.132;16.848;2023-02-13T14:46:26;24.20;49.70
21425;DHT22;10873;51.132;16.848;2023-02-13T14:48:58;24.20;49.60
21425;DHT22;10873;51.132;16.848;2023-02-13T14:51:32;24.20;49.60
21425;DHT22;10873;51.132;16.848;2023-02-13T14:54:03;24.20;49.50
21425;DHT22;10873;51.132;16.848;2023-02-13T14:56:31;24.20;49.40
21425;DHT22;10873;51.132;16.848;2023-02-13T14:59:04;24.20;49.40
21425;DHT22;10873;51.132;16.848;2023-02-13T15:01:33;24.20;49.40
21425;DHT22;10873;51.132;16.848;2023-02-13T15:04:06;24.30;49.40
21425;DHT22;10873;51.132;16.848;2023-02-13T15:06:38;24.30;49.40
21425;DHT22;10873;51.132;16.848;2023-02-13T15:09:18;24.30;49.40
21425;DHT22;10873;51.132;16.848;2023-02-13T15:11:45;24.30;49.40
21425;DHT22;10873;51.132;16.848;2023-02-13T15:14:19;24.30;49.40
21425;DHT22;10873;51.132;16.848;2023-02-13T15:16:49;24.30;49.50
21425;DHT22;10873;51.132;16.848;2023-02-13T15:19:17;24.30;49.40
21425;DHT22;10873;51.132;16.848;2023-02-13T15:21:55;24.30;49.50
21425;DHT22;10873;51.132;16.848;2023-02-13T15:24:22;24.30;49.50
21425;DHT22;10873;51.132;16.848;2023-02-13T15:26:51;24.30;49.50
21425;DHT22;10873;51.132;16.848;2023-02-13T15:29:19;24.30;49.50
21425;DHT22;10873;51.132;16.848;2023-02-13T15:31:45;24.30;49.50
21425;DHT22;10873;51.132;16.848;2023-02-13T15:34:24;24.30;49.50
21425;DHT22;10873;51.132;16.848;2023-02-13T15:36:52;24.30;49.50
21425;DHT22;10873;51.132;16.848;2023-02-13T15:39:21;24.30;49.50
21425;DHT22;10873;51.132;16.848;2023-02-13T15:41:50;24.30;49.50
21425;DHT22;10873;51.132;16.848;2023-02-13T15:44:18;24.30;49.60
21425;DHT22;10873;51.132;16.848;2023-02-13T15:46:46;24.20;49.50
21425;DHT22;10873;51.132;16.848;2023-02-13T15:49:15;24.20;49.50
21425;DHT22;10873;51.132;16.848;2023-02-13T15:51:42;24.20;49.60
21425;DHT22;10873;51.132;16.848;2023-02-13T15:54:22;24.20;49.60
21425;DHT22;10873;51.132;16.848;2023-02-13T15:56:50;24.20;49.60
21425;DHT22;10873;51.132;16.848;2023-02-13T15:59:17;24.20;49.70
21425;DHT22;10873;51.132;16.848;2023-02-13T16:01:45;24.20;49.70
21425;DHT22;10873;51.132;16.848;2023-02-13T16:04:13;24.20;49.70
21425;DHT22;10873;51.132;16.848;2023-02-13T16:06:41;24.20;49.70
21425;DHT22;10873;51.132;16.848;2023-02-13T16:09:23;24.20;49.70
21425;DHT22;10873;51.132;16.848;2023-02-13T16:11:50;24.20;49.70